createdAt,value
2023-03-30T00:01:58.039Z,3.67
2023-03-30T00:04:27.312Z,5.30
2023-03-30T00:06:55.563Z,3.90
2023-03-30T00:09:24.233Z,4.27
2023-03-30T00:11:54.844Z,4.80
2023-03-30T00:14:29.549Z,4.37
2023-03-30T00:16:57.897Z,4.57
2023-03-30T00:19:26.429Z,4.80
2023-03-30T00:21:54.495Z,5.20
2023-03-30T00:24:22.478Z,4.03
2023-03-30T00:26:50.478Z,4.10
2023-03-30T00:29:19.757Z,4.37
2023-03-30T00:31:47.735Z,4.23
2023-03-30T00:34:15.724Z,4.73
2023-03-30T00:36:46.544Z,3.70
2023-03-30T00:39:15.045Z,4.97
2023-03-30T00:41:43.078Z,5.60
2023-03-30T00:45:07.130Z,4.47
2023-03-30T00:47:37.585Z,3.33
2023-03-30T00:50:08.089Z,4.10
2023-03-30T00:52:37.680Z,3.67
2023-03-30T00:55:08.594Z,4.97
2023-03-30T00:57:39.047Z,3.87
2023-03-30T01:00:14.987Z,3.80
2023-03-30T01:02:53.385Z,6.13
2023-03-30T01:05:24.023Z,4.27
2023-03-30T01:07:53.346Z,5.63
2023-03-30T01:10:22.101Z,6.83
2023-03-30T01:12:50.258Z,4.50
2023-03-30T01:15:20.419Z,4.20
2023-03-30T01:18:06.908Z,3.60
2023-03-30T01:21:34.841Z,3.70
2023-03-30T01:24:48.952Z,3.63
2023-03-30T01:27:46.247Z,3.63
2023-03-30T01:30:32.990Z,4.00
2023-03-30T01:33:36.198Z,3.70
2023-03-30T01:36:47.703Z,3.80
2023-03-30T01:39:41.807Z,4.10
2023-03-30T01:42:27.523Z,5.33
2023-03-30T01:45:04.809Z,6.23
2023-03-30T01:47:39.471Z,6.33
2023-03-30T01:50:13.758Z,5.20
2023-03-30T01:52:53.798Z,4.10
2023-03-30T01:55:28.769Z,4.10
2023-03-30T01:58:01.228Z,3.73
2023-03-30T02:00:31.563Z,4.10
2023-03-30T02:03:17.272Z,4.47
2023-03-30T02:05:48.449Z,4.60
2023-03-30T02:08:21.089Z,3.70
2023-03-30T02:10:56.071Z,5.10
2023-03-30T02:13:26.610Z,5.03
2023-03-30T02:16:00.184Z,4.77
2023-03-30T02:18:30.748Z,4.73
2023-03-30T02:20:59.400Z,5.70
2023-03-30T02:23:34.965Z,3.73
2023-03-30T02:26:05.183Z,6.73
2023-03-30T02:28:33.549Z,3.60
2023-03-30T02:31:02.067Z,3.70
2023-03-30T02:33:54.064Z,7.03
2023-03-30T02:36:42.888Z,3.83
2023-03-30T02:39:24.229Z,5.10
2023-03-30T02:42:30.259Z,4.10
2023-03-30T02:45:15.413Z,7.77
2023-03-30T02:48:00.436Z,2.40
2023-03-30T02:50:34.924Z,5.70
2023-03-30T02:53:16.402Z,4.03
2023-03-30T02:55:52.559Z,3.33
2023-03-30T02:58:32.959Z,4.73
2023-03-30T03:01:08.027Z,5.50
2023-03-30T03:03:41.276Z,4.47
2023-03-30T03:06:11.563Z,5.47
2023-03-30T03:08:43.085Z,5.50
2023-03-30T03:11:12.062Z,3.37
2023-03-30T03:13:42.066Z,5.03
2023-03-30T03:16:12.192Z,4.00
2023-03-30T03:18:42.195Z,4.30
2023-03-30T03:21:12.521Z,3.30
2023-03-30T03:23:41.358Z,6.23
2023-03-30T03:26:11.498Z,3.50
2023-03-30T03:28:41.125Z,5.00
2023-03-30T03:31:09.402Z,4.90
2023-03-30T03:33:37.710Z,3.17
2023-03-30T03:36:06.513Z,5.03
2023-03-30T03:38:34.799Z,2.90
2023-03-30T03:41:02.971Z,5.40
2023-03-30T03:43:31.723Z,4.73
2023-03-30T03:46:01.399Z,4.07
2023-03-30T03:48:29.784Z,4.10
2023-03-30T03:50:59.748Z,3.80
2023-03-30T03:53:29.457Z,3.40
2023-03-30T03:55:57.509Z,4.40
2023-03-30T03:58:26.720Z,3.67
2023-03-30T04:01:01.445Z,3.37
2023-03-30T04:03:30.840Z,4.37
2023-03-30T04:06:02.951Z,4.70
2023-03-30T04:08:31.497Z,3.80
2023-03-30T04:11:07.994Z,3.77
2023-03-30T04:13:36.847Z,3.43
2023-03-30T04:16:07.705Z,3.80
2023-03-30T04:18:36.977Z,5.63
2023-03-30T04:21:12.831Z,4.40
2023-03-30T04:23:45.729Z,4.60
2023-03-30T04:26:20.097Z,3.13
2023-03-30T04:28:48.492Z,6.10
2023-03-30T04:31:18.034Z,3.57
2023-03-30T04:33:52.103Z,5.30
2023-03-30T04:36:21.001Z,3.43
2023-03-30T04:38:58.621Z,4.37
2023-03-30T04:41:33.952Z,4.43
2023-03-30T04:44:03.842Z,5.90
2023-03-30T04:46:33.920Z,4.40
2023-03-30T04:49:02.345Z,4.63
2023-03-30T04:51:31.515Z,4.03
2023-03-30T04:53:59.552Z,3.83
2023-03-30T04:56:27.793Z,4.60
2023-03-30T04:58:56.953Z,4.37
2023-03-30T05:01:25.353Z,3.50
2023-03-30T05:03:55.196Z,2.60
2023-03-30T05:06:23.520Z,3.90
2023-03-30T05:08:57.374Z,3.60
2023-03-30T05:11:26.188Z,7.90
2023-03-30T05:13:54.943Z,6.73
2023-03-30T05:16:23.684Z,3.10
2023-03-30T05:18:51.930Z,4.23
2023-03-30T05:21:21.392Z,3.40
2023-03-30T05:23:49.505Z,14.13
2023-03-30T05:26:17.560Z,3.27
2023-03-30T05:28:47.653Z,3.80
2023-03-30T05:31:15.757Z,2.97
2023-03-30T05:33:44.123Z,5.03
2023-03-30T05:36:12.709Z,3.93
2023-03-30T05:38:42.334Z,3.30
2023-03-30T05:41:12.944Z,4.23
2023-03-30T05:43:41.274Z,3.70
2023-03-30T05:46:09.424Z,3.87
2023-03-30T05:48:37.686Z,2.87
2023-03-30T05:51:09.139Z,2.63
2023-03-30T05:53:37.528Z,3.00
2023-03-30T05:56:08.317Z,4.27
2023-03-30T05:58:36.815Z,4.60
2023-03-30T06:01:06.172Z,3.53
2023-03-30T06:03:34.599Z,5.00
2023-03-30T06:06:02.946Z,2.47
2023-03-30T06:08:33.657Z,3.53
2023-03-30T06:11:02.136Z,4.50
2023-03-30T06:13:31.871Z,3.30
2023-03-30T06:16:02.460Z,5.10
2023-03-30T06:18:37.677Z,3.60
2023-03-30T06:21:07.742Z,2.80
2023-03-30T06:23:37.255Z,4.50
2023-03-30T06:26:07.626Z,13.30
2023-03-30T06:28:38.040Z,8.47
2023-03-30T06:31:13.162Z,4.47
2023-03-30T06:33:42.087Z,4.20
2023-03-30T06:36:12.891Z,3.73
2023-03-30T06:38:43.102Z,4.20
2023-03-30T06:41:12.610Z,3.87
2023-03-30T06:43:42.569Z,4.33
2023-03-30T06:46:11.401Z,4.10
2023-03-30T06:48:39.528Z,4.13
2023-03-30T06:51:09.022Z,4.53
2023-03-30T06:53:37.578Z,5.07
2023-03-30T06:56:06.830Z,9.17
2023-03-30T06:58:35.274Z,8.07
2023-03-30T07:01:12.222Z,5.43
2023-03-30T07:03:41.168Z,7.80
2023-03-30T07:06:10.515Z,7.70
2023-03-30T07:08:40.348Z,8.70
2023-03-30T07:11:08.613Z,9.17
2023-03-30T07:13:36.761Z,2.83
2023-03-30T07:16:05.414Z,7.43
2023-03-30T07:18:34.924Z,8.73
2023-03-30T07:21:04.492Z,5.43
2023-03-30T07:23:33.129Z,6.00
2023-03-30T07:26:01.276Z,4.90
2023-03-30T07:28:29.263Z,7.07
2023-03-30T07:31:06.472Z,4.13
2023-03-30T07:33:37.302Z,9.93
2023-03-30T07:36:06.981Z,6.20
2023-03-30T07:38:35.159Z,4.20
2023-03-30T07:41:08.205Z,6.43
2023-03-30T07:43:36.719Z,6.90
2023-03-30T07:46:05.388Z,10.80
2023-03-30T07:48:33.686Z,7.97
2023-03-30T07:51:06.861Z,4.37
2023-03-30T07:53:35.059Z,5.40
2023-03-30T07:56:03.205Z,4.50
2023-03-30T07:58:31.485Z,6.73
2023-03-30T08:00:59.441Z,6.13
2023-03-30T08:03:27.684Z,4.83
2023-03-30T08:06:00.728Z,3.97
2023-03-30T08:08:30.611Z,3.70
2023-03-30T08:10:59.236Z,4.37
2023-03-30T08:13:27.739Z,4.40
2023-03-30T08:15:56.306Z,5.63
2023-03-30T08:18:25.531Z,4.70
2023-03-30T08:20:55.559Z,4.37
2023-03-30T08:23:24.060Z,4.57
2023-03-30T08:25:57.557Z,8.80
2023-03-30T08:28:26.303Z,4.53
2023-03-30T08:30:54.609Z,6.63
2023-03-30T08:33:24.039Z,5.83
2023-03-30T08:35:52.374Z,7.10
2023-03-30T08:38:20.524Z,4.23
2023-03-30T08:40:51.272Z,4.70
2023-03-30T08:43:34.502Z,6.23
2023-03-30T08:46:03.575Z,5.00
2023-03-30T08:48:37.474Z,3.67
2023-03-30T08:51:16.547Z,2.83
2023-03-30T08:53:44.847Z,4.30
2023-03-30T08:56:18.613Z,3.20
2023-03-30T08:58:59.552Z,4.53
2023-03-30T09:01:35.588Z,13.07
2023-03-30T09:04:17.425Z,6.37
2023-03-30T09:06:51.742Z,5.07
2023-03-30T09:09:23.551Z,4.93
2023-03-30T09:11:59.263Z,2.80
2023-03-30T09:14:36.302Z,9.50
2023-03-30T09:17:11.949Z,4.60
2023-03-30T09:19:50.433Z,7.93
2023-03-30T09:22:20.776Z,13.53
2023-03-30T09:24:51.467Z,2.80
2023-03-30T09:27:26.985Z,3.97
2023-03-30T09:30:02.443Z,3.47
2023-03-30T09:32:34.620Z,8.03
2023-03-30T09:35:09.085Z,5.40
2023-03-30T09:37:37.534Z,4.83
2023-03-30T09:40:21.937Z,3.93
2023-03-30T09:42:59.063Z,6.07
2023-03-30T09:45:33.549Z,5.80
2023-03-30T09:48:08.140Z,5.33
2023-03-30T09:50:41.990Z,3.30
2023-03-30T09:53:24.825Z,3.97
2023-03-30T09:56:01.613Z,5.00
2023-03-30T09:58:32.168Z,4.27
2023-03-30T10:01:08.205Z,4.57
2023-03-30T10:03:37.039Z,3.10
2023-03-30T10:06:08.722Z,4.77
2023-03-30T10:08:43.963Z,3.27
2023-03-30T10:11:12.251Z,3.03
2023-03-30T10:13:43.895Z,3.10
2023-03-30T10:16:26.824Z,3.90
2023-03-30T10:18:57.778Z,3.23
2023-03-30T10:21:28.194Z,3.53
2023-03-30T10:24:09.161Z,5.27
2023-03-30T10:26:39.117Z,4.57
2023-03-30T10:29:10.828Z,4.27
2023-03-30T10:31:44.302Z,3.90
2023-03-30T10:34:18.870Z,3.33
2023-03-30T10:36:51.885Z,3.97
2023-03-30T10:39:25.537Z,3.73
2023-03-30T10:41:56.813Z,5.93
2023-03-30T10:44:32.865Z,5.13
2023-03-30T10:47:20.028Z,2.90
2023-03-30T10:49:58.362Z,9.50
2023-03-30T10:52:34.379Z,5.13
2023-03-30T10:55:10.291Z,5.67
2023-03-30T10:57:50.957Z,4.33
2023-03-30T11:00:29.701Z,6.67
2023-03-30T11:03:06.666Z,4.90
2023-03-30T11:05:40.288Z,6.73
2023-03-30T11:08:13.767Z,11.00
2023-03-30T11:10:44.697Z,21.23
2023-03-30T11:13:18.485Z,18.80
2023-03-30T11:15:51.998Z,20.47
2023-03-30T11:18:28.404Z,18.50
2023-03-30T11:21:02.481Z,20.50
2023-03-30T11:23:41.794Z,23.37
2023-03-30T11:26:13.372Z,23.83
2023-03-30T11:28:59.062Z,24.90
2023-03-30T11:31:44.116Z,24.00
2023-03-30T11:34:25.889Z,26.20
2023-03-30T11:37:02.851Z,26.17
2023-03-30T11:39:34.904Z,19.90
2023-03-30T11:42:16.762Z,22.07
2023-03-30T11:44:44.946Z,20.50
2023-03-30T11:47:36.854Z,19.40
2023-03-30T11:50:25.411Z,19.87
2023-03-30T11:53:07.489Z,16.23
2023-03-30T11:55:54.504Z,18.10
2023-03-30T11:58:35.439Z,15.57
2023-03-30T12:01:26.343Z,16.93
2023-03-30T12:04:00.117Z,14.00
2023-03-30T12:06:33.356Z,14.37
2023-03-30T12:09:25.423Z,15.37
2023-03-30T12:12:04.118Z,16.33
2023-03-30T12:15:10.517Z,16.70
2023-03-30T12:17:51.017Z,20.07
2023-03-30T12:20:30.854Z,15.60
2023-03-30T12:23:16.251Z,17.17
2023-03-30T12:26:04.313Z,20.97
2023-03-30T12:29:05.065Z,15.73
2023-03-30T12:31:52.504Z,16.10
2023-03-30T12:34:21.738Z,17.33
2023-03-30T12:36:51.128Z,17.57
2023-03-30T12:39:30.945Z,16.70
2023-03-30T12:42:05.573Z,17.67
2023-03-30T12:44:49.736Z,19.53
2023-03-30T12:47:34.455Z,19.53
2023-03-30T12:50:21.056Z,20.40
2023-03-30T12:53:04.813Z,17.33
2023-03-30T12:55:47.174Z,17.37
2023-03-30T12:58:55.540Z,15.63
2023-03-30T13:01:49.461Z,15.30
2023-03-30T13:04:23.268Z,16.80
2023-03-30T13:06:55.694Z,16.70
2023-03-30T13:09:37.481Z,14.37
2023-03-30T13:12:39.031Z,18.87
2023-03-30T13:15:34.376Z,12.13
2023-03-30T13:18:05.088Z,15.97
2023-03-30T13:20:35.593Z,12.97
2023-03-30T13:23:25.344Z,13.30
2023-03-30T13:26:04.864Z,15.27
2023-03-30T13:28:55.801Z,16.67
2023-03-30T13:31:46.854Z,13.83
2023-03-30T13:34:27.195Z,14.97
2023-03-30T13:37:07.835Z,13.60
2023-03-30T13:39:43.138Z,14.50
2023-03-30T13:42:39.843Z,14.23
2023-03-30T13:45:28.094Z,15.67
2023-03-30T13:48:11.211Z,12.93
2023-03-30T13:50:40.388Z,13.93
2023-03-30T13:53:11.669Z,11.40
2023-03-30T13:55:43.414Z,6.10
2023-03-30T13:58:16.490Z,5.50
2023-03-30T14:00:50.584Z,4.93
2023-03-30T14:03:35.471Z,6.33
2023-03-30T14:06:08.316Z,6.23
2023-03-30T14:08:39.727Z,7.67
2023-03-30T14:11:16.434Z,8.70
2023-03-30T14:13:46.008Z,11.03
2023-03-30T14:16:22.913Z,10.53
2023-03-30T14:18:51.892Z,9.20
2023-03-30T14:21:23.970Z,10.47
2023-03-30T14:23:54.121Z,11.30
2023-03-30T14:26:26.258Z,9.30
2023-03-30T14:28:57.257Z,8.70
2023-03-30T14:31:27.582Z,7.50
2023-03-30T14:33:56.069Z,13.57
2023-03-30T14:36:24.238Z,8.80
2023-03-30T14:38:54.339Z,9.43
2023-03-30T14:41:27.167Z,13.80
2023-03-30T14:43:58.405Z,11.20
2023-03-30T14:46:40.166Z,13.33
2023-03-30T14:49:09.692Z,7.30
2023-03-30T14:51:41.442Z,8.90
2023-03-30T14:54:15.642Z,8.63
2023-03-30T14:56:46.364Z,12.93
2023-03-30T14:59:16.389Z,7.63
2023-03-30T15:01:46.414Z,7.23
2023-03-30T15:04:16.986Z,9.63
2023-03-30T15:06:48.185Z,6.20
2023-03-30T15:09:19.085Z,6.20
2023-03-30T15:11:52.396Z,8.30
2023-03-30T15:14:23.230Z,9.20
2023-03-30T15:16:54.621Z,9.17
2023-03-30T15:19:29.479Z,8.60
2023-03-30T15:22:00.984Z,9.23
2023-03-30T15:24:33.708Z,7.07
2023-03-30T15:27:05.281Z,8.17
2023-03-30T15:29:34.137Z,6.90
2023-03-30T15:32:12.863Z,8.67
2023-03-30T15:35:02.045Z,9.47
2023-03-30T15:37:30.846Z,6.63
2023-03-30T15:39:59.131Z,8.43
2023-03-30T15:42:31.490Z,6.17
2023-03-30T15:45:05.367Z,5.80
2023-03-30T15:47:35.359Z,8.50
2023-03-30T15:50:03.950Z,7.60
2023-03-30T15:52:35.813Z,5.90
2023-03-30T15:55:10.704Z,6.80
2023-03-30T15:57:44.259Z,5.90
2023-03-30T16:00:20.326Z,7.33
2023-03-30T16:02:57.764Z,8.73
2023-03-30T16:05:28.386Z,9.57
2023-03-30T16:07:56.519Z,22.50
2023-03-30T16:10:27.313Z,8.53
2023-03-30T16:12:58.392Z,7.30
2023-03-30T16:15:29.614Z,8.67
2023-03-30T16:17:59.249Z,17.80
2023-03-30T16:20:30.416Z,9.20
2023-03-30T16:22:58.675Z,8.60
2023-03-30T16:28:00.005Z,4.43
2023-03-30T16:30:31.321Z,6.70
2023-03-30T16:33:00.897Z,7.43
2023-03-30T16:35:28.936Z,7.07
2023-03-30T16:37:56.986Z,5.80
2023-03-30T16:40:32.425Z,6.23
2023-03-30T16:43:01.166Z,5.47
2023-03-30T16:45:29.901Z,7.40
2023-03-30T16:47:58.009Z,5.93
2023-03-30T16:50:36.055Z,5.77
2023-03-30T16:53:04.600Z,8.02
2023-03-30T16:55:33.190Z,9.73
2023-03-30T16:58:01.545Z,4.77
2023-03-30T17:00:32.480Z,4.60
2023-03-30T17:03:00.803Z,5.80
2023-03-30T17:05:31.909Z,6.77
2023-03-30T17:08:05.614Z,5.67
2023-03-30T17:10:37.301Z,11.25
2023-03-30T17:13:05.486Z,8.13
2023-03-30T17:15:35.030Z,6.80
2023-03-30T17:18:06.154Z,6.10
2023-03-30T17:20:39.726Z,9.43
2023-03-30T17:23:10.168Z,8.63
2023-03-30T17:25:39.728Z,12.10
2023-03-30T17:28:09.398Z,8.57
2023-03-30T17:30:40.599Z,6.10
2023-03-30T17:33:10.844Z,6.07
2023-03-30T17:35:41.011Z,11.13
2023-03-30T17:38:09.586Z,6.57
2023-03-30T17:40:38.945Z,8.00
2023-03-30T17:43:07.525Z,6.20
2023-03-30T17:45:36.964Z,8.50
2023-03-30T17:48:07.703Z,7.10
2023-03-30T17:50:39.286Z,5.33
2023-03-30T17:53:08.849Z,9.07
2023-03-30T17:55:36.878Z,5.77
2023-03-30T17:58:04.937Z,5.70
2023-03-30T18:00:34.860Z,8.20
2023-03-30T18:03:03.095Z,6.50
2023-03-30T18:05:33.063Z,6.57
2023-03-30T18:08:01.195Z,7.73
2023-03-30T18:10:37.343Z,6.20
2023-03-30T18:13:06.658Z,7.17
2023-03-30T18:15:35.279Z,9.10
2023-03-30T18:18:03.416Z,9.13
2023-03-30T18:20:34.396Z,8.67
2023-03-30T18:23:02.641Z,6.50
2023-03-30T18:25:32.931Z,7.10
2023-03-30T18:28:01.845Z,5.33
2023-03-30T18:30:32.808Z,5.80
2023-03-30T18:33:01.371Z,5.63
2023-03-30T18:35:32.394Z,6.17
2023-03-30T18:38:00.528Z,6.70
2023-03-30T18:40:33.098Z,7.43
2023-03-30T18:43:01.664Z,7.30
2023-03-30T18:45:33.886Z,6.27
2023-03-30T18:48:03.591Z,4.80
2023-03-30T18:50:36.346Z,6.83
2023-03-30T18:53:07.079Z,6.27
2023-03-30T18:55:38.676Z,5.90
2023-03-30T18:58:13.259Z,3.93
2023-03-30T19:00:41.509Z,11.00
2023-03-30T19:03:13.035Z,7.00
2023-03-30T19:05:41.960Z,4.57
2023-03-30T19:08:13.172Z,6.97
2023-03-30T19:10:44.745Z,6.10
2023-03-30T19:13:14.836Z,4.50
2023-03-30T19:15:43.792Z,5.40
2023-03-30T19:18:12.485Z,7.30
2023-03-30T19:20:42.016Z,4.90
2023-03-30T19:23:13.837Z,4.23
2023-03-30T19:25:44.276Z,4.30
2023-03-30T19:28:14.595Z,3.83
2023-03-30T19:30:43.519Z,5.20
2023-03-30T19:33:16.033Z,3.90
2023-03-30T19:35:46.118Z,4.20
2023-03-30T19:38:16.144Z,4.30
2023-03-30T19:40:45.633Z,3.00
2023-03-30T19:43:13.728Z,5.40
2023-03-30T19:45:41.727Z,4.80
2023-03-30T19:48:10.683Z,8.97
2023-03-30T19:50:40.551Z,7.37
2023-03-30T19:53:09.107Z,5.10
2023-03-30T19:55:37.721Z,4.57
2023-03-30T19:58:07.491Z,3.63
2023-03-30T20:00:35.627Z,4.73
2023-03-30T20:03:04.082Z,3.60
2023-03-30T20:05:32.898Z,3.43
2023-03-30T20:08:10.539Z,5.93
2023-03-30T20:10:49.743Z,6.00
2023-03-30T20:13:21.828Z,5.00
2023-03-30T20:15:49.861Z,5.13
2023-03-30T20:18:18.409Z,5.80
2023-03-30T20:20:46.415Z,4.37
2023-03-30T20:23:14.465Z,5.17
2023-03-30T20:25:46.520Z,6.63
2023-03-30T20:28:14.479Z,5.73
2023-03-30T20:30:43.745Z,4.13
2023-03-30T20:33:12.127Z,4.33
2023-03-30T20:35:40.604Z,3.87
2023-03-30T20:38:08.814Z,3.97
2023-03-30T20:40:36.894Z,3.17
2023-03-30T20:43:09.786Z,4.87
2023-03-30T20:45:45.907Z,4.70
2023-03-30T20:48:25.929Z,5.20
2023-03-30T20:50:55.196Z,3.83
2023-03-30T20:53:23.634Z,4.10
2023-03-30T20:55:51.936Z,3.80
2023-03-30T20:58:22.162Z,2.77
2023-03-30T21:00:51.838Z,4.50
2023-03-30T21:03:25.952Z,4.77
2023-03-30T21:06:01.373Z,4.03
2023-03-30T21:08:31.851Z,3.50
2023-03-30T21:11:00.533Z,6.63
2023-03-30T21:13:29.096Z,3.90
2023-03-30T21:15:58.363Z,4.47
2023-03-30T21:18:28.805Z,3.17
2023-03-30T21:20:57.049Z,4.67
2023-03-30T21:23:26.576Z,5.10
2023-03-30T21:25:57.505Z,3.13
2023-03-30T21:28:28.419Z,5.23
2023-03-30T21:30:57.706Z,3.70
2023-03-30T21:33:29.449Z,3.17
2023-03-30T21:35:59.661Z,3.80
2023-03-30T21:38:29.745Z,3.80
2023-03-30T21:41:02.742Z,4.43
2023-03-30T21:43:33.467Z,4.47
2023-03-30T21:46:04.506Z,4.87
2023-03-30T21:48:37.298Z,2.77
2023-03-30T21:51:08.516Z,3.40
2023-03-30T21:53:37.124Z,4.70
2023-03-30T21:56:06.245Z,4.47
2023-03-30T21:58:34.562Z,4.17
2023-03-30T22:01:11.892Z,3.43
2023-03-30T22:03:43.143Z,2.77
2023-03-30T22:06:13.772Z,2.50
2023-03-30T22:08:42.029Z,2.90
2023-03-30T22:11:14.310Z,3.43
2023-03-30T22:13:43.215Z,3.40
2023-03-30T22:16:14.534Z,2.90
2023-03-30T22:18:45.018Z,4.20
2023-03-30T22:21:17.102Z,3.10
2023-03-30T22:23:48.043Z,3.23
2023-03-30T22:26:16.914Z,2.20
2023-03-30T22:28:45.082Z,3.13
2023-03-30T22:31:15.648Z,5.13
2023-03-30T22:33:46.229Z,2.40
2023-03-30T22:36:18.915Z,3.50
2023-03-30T22:38:47.729Z,3.23
2023-03-30T22:41:16.664Z,2.70
2023-03-30T22:43:44.768Z,2.47
2023-03-30T22:46:13.054Z,2.63
2023-03-30T22:48:41.960Z,2.37
2023-03-30T22:51:14.274Z,3.07
2023-03-30T22:53:42.714Z,3.40
2023-03-30T22:56:11.832Z,2.67
2023-03-30T22:58:40.119Z,2.40
2023-03-30T23:01:10.197Z,2.63
2023-03-30T23:03:48.572Z,3.03
2023-03-30T23:06:19.218Z,3.33
2023-03-30T23:08:48.481Z,3.90
2023-03-30T23:11:17.529Z,3.47
2023-03-30T23:13:46.055Z,2.20
2023-03-30T23:16:22.331Z,2.17
2023-03-30T23:19:08.616Z,2.17
2023-03-30T23:21:38.441Z,5.10
2023-03-30T23:24:11.862Z,2.33
2023-03-30T23:26:40.032Z,4.33
2023-03-30T23:29:08.267Z,2.27
2023-03-30T23:31:36.670Z,2.60
2023-03-30T23:34:05.486Z,3.83
2023-03-30T23:36:34.891Z,3.50
2023-03-30T23:39:05.461Z,2.90
2023-03-30T23:41:33.687Z,4.37
2023-03-30T23:44:02.073Z,2.97
2023-03-30T23:46:30.932Z,3.20
2023-03-30T23:48:59.481Z,2.07
2023-03-30T23:51:36.750Z,3.03
2023-03-30T23:54:07.415Z,2.50
2023-03-30T23:56:37.024Z,2.87
2023-03-30T23:59:06.445Z,2.70
